createdAt,value
2019-02-16T18:56:30.642Z,0.501
2019-02-16T18:56:36.771Z,0.518
2019-02-16T18:56:43.348Z,0.538
2019-02-16T18:56:49.909Z,0.554
2019-02-16T18:57:07.255Z,0.593
2019-02-16T18:57:14.245Z,0.608
2019-02-16T18:57:20.864Z,0.623
2019-02-16T18:57:27.420Z,0.635
2019-02-16T18:57:34.135Z,0.643
2019-02-16T18:57:41.629Z,0.653
2019-02-16T18:57:48.764Z,0.669
2019-02-16T18:57:57.265Z,0.683
2019-02-16T18:58:03.459Z,0.694
2019-02-16T18:58:11.965Z,0.708
2019-02-16T18:58:18.118Z,0.719
2019-02-16T18:58:24.719Z,0.73
2019-02-16T18:58:31.313Z,0.742
2019-02-16T18:58:37.915Z,0.751
2019-02-16T18:58:44.425Z,0.763
2019-02-16T18:58:51.036Z,0.772
2019-02-16T18:58:57.674Z,0.781
2019-02-16T18:59:04.095Z,0.79
2019-02-16T18:59:10.669Z,0.796
2019-02-16T18:59:17.259Z,0.803
2019-02-16T18:59:23.871Z,0.812
2019-02-16T18:59:30.435Z,0.822
2019-02-16T18:59:39.016Z,0.835
2019-02-16T18:59:45.113Z,0.842
2019-02-16T18:59:53.746Z,0.852
2019-02-16T18:59:59.868Z,0.858
2019-02-16T19:00:11.628Z,0.865
2019-02-16T19:00:17.764Z,0.872
2019-02-16T19:00:24.308Z,0.875
2019-02-16T19:00:32.952Z,0.879
2019-02-16T19:00:39.093Z,0.889
2019-02-16T19:00:45.676Z,0.893
2019-02-16T19:00:54.304Z,0.896
2019-02-16T19:01:02.734Z,0.9
2019-02-16T19:01:09.576Z,0.903
2019-02-16T19:01:16.740Z,0.903
2019-02-16T19:01:23.383Z,0.911
2019-02-16T19:01:29.884Z,0.914
2019-02-16T19:01:38.483Z,0.925
2019-02-16T19:01:44.626Z,0.929
2019-02-16T19:01:51.233Z,0.932
2019-02-16T19:01:59.823Z,0.936
2019-02-16T19:02:05.955Z,0.944
2019-02-16T19:02:12.525Z,0.944
2019-02-16T19:02:21.180Z,0.947
2019-02-16T19:02:29.331Z,0.947
2019-02-16T19:02:35.353Z,0.947
2019-02-16T19:02:42.693Z,0.947
2019-02-16T19:02:48.543Z,0.947
2019-02-16T19:02:57.850Z,0.947
2019-02-16T19:03:04.970Z,0.951
2019-02-16T19:03:13.421Z,0.947
2019-02-16T19:03:21.307Z,0.947
2019-02-16T19:03:27.729Z,0.947
2019-02-16T19:03:34.292Z,0.947
2019-02-16T19:03:41.880Z,0.947
2019-02-16T19:03:50.712Z,0.947
2019-02-16T19:04:00.479Z,0.947
2019-02-16T19:04:10.180Z,0.951
2019-02-16T19:04:16.816Z,0.951
2019-02-16T19:04:23.371Z,0.955
2019-02-16T19:04:29.971Z,0.955
2019-02-16T19:04:36.527Z,0.955
2019-02-16T19:04:43.114Z,0.955
2019-02-16T19:04:49.649Z,0.955
2019-02-16T19:04:58.234Z,0.951
2019-02-16T19:05:05.484Z,0.955
2019-02-16T19:05:12.491Z,0.962
2019-02-16T19:05:19.055Z,0.966
2019-02-16T19:05:25.624Z,0.97
2019-02-16T19:05:32.190Z,0.974
2019-02-16T19:05:39.732Z,0.974
2019-02-16T19:05:48.261Z,0.982
2019-02-16T19:05:55.095Z,0.99
2019-02-16T19:06:01.683Z,0.993
2019-02-16T19:06:08.277Z,0.997
2019-02-16T19:06:14.764Z,1.005
2019-02-16T19:06:21.348Z,1.009
2019-02-16T19:06:28.045Z,1.017
2019-02-16T19:06:36.550Z,1.026
2019-02-16T19:06:42.701Z,1.03
2019-02-16T19:06:52.414Z,1.034
2019-02-16T19:06:59.092Z,1.038
2019-02-16T19:07:05.575Z,1.038
2019-02-16T19:07:12.122Z,1.042
2019-02-16T19:07:21.132Z,1.046
2019-02-16T19:07:26.862Z,1.05
2019-02-16T19:07:33.410Z,1.055
2019-02-16T19:07:43.588Z,1.059
2019-02-16T19:07:51.709Z,1.063
2019-02-16T19:07:59.872Z,1.067
2019-02-16T19:08:06.078Z,1.067
2019-02-16T19:08:12.637Z,1.067
2019-02-16T19:08:21.252Z,1.072
2019-02-16T19:08:29.431Z,1.076
2019-02-16T19:08:35.480Z,1.076
2019-02-16T19:08:43.152Z,1.076
2019-02-16T19:08:50.272Z,1.08
2019-02-16T19:08:56.847Z,1.089
2019-02-16T19:09:05.520Z,1.089
2019-02-16T19:09:13.618Z,1.093
2019-02-16T19:09:19.848Z,1.093
2019-02-16T19:09:26.344Z,1.098
2019-02-16T19:09:32.977Z,1.107
2019-02-16T19:09:41.538Z,1.116
2019-02-16T19:09:47.688Z,1.12
2019-02-16T19:09:56.744Z,1.12
2019-02-16T19:10:03.859Z,1.12
2019-02-16T19:10:12.094Z,1.12
2019-02-16T19:10:18.797Z,1.125
